F/V Magali — FGIW — position and weather

sailwx.info

Track history (hours):
 
Tides and Currents Weather Stations Pressure Air Temp Water Temp Dewpoint Dewpoint Depression Visibility Wind Speed Wind Dir Waves Ship Positions

F/V Magali

Last reported at 2017-Dec-10 04:48 UTC. Time now 2017-Dec-14 12:56 UTC.
Position N 47°44' W 003°22'.

Length 18 m; draft 3.5 m.

Type: Fishing. MMSI: 228135000.

Date/timePositionNaut miles runAvg speedWind from/ knotsBaromVisibWave heightAir tempDewpointWater temp
2017-Dec-10 04:48N 47°44' W 003°22'0 0.0
2017-Dec-10 04:30N 47°44' W 003°22'0 0.0
2017-Dec-10 04:00N 47°44' W 003°22'1 1.5
2017-Dec-10 03:30N 47°43' W 003°22'4 8.0
2017-Dec-10 03:00N 47°40' W 003°27'4 8.0
2017-Dec-10 02:30N 47°39' W 003°32'3 5.5
2017-Dec-10 02:00N 47°37' W 003°35'3 5.5
2017-Dec-10 01:30N 47°35' W 003°38'3 5.3
2017-Dec-10 01:00N 47°33' W 003°40'3 5.3
2017-Dec-10 00:30N 47°31' W 003°43'3 5.2
2017-Dec-10 00:00N 47°29' W 003°45'3 5.2
2017-Dec-09 23:30N 47°27' W 003°48'1 0.1
2017-Dec-09 10:38N 47°28' W 003°48'1 4.1
2017-Dec-09 10:29N 47°29' W 003°48'2 3.8
2017-Dec-09 09:57N 47°30' W 003°50'3 4.1
2017-Dec-09 09:12N 47°30' W 003°55'1 4.3
2017-Dec-09 08:58N 47°31' W 003°56'4 2.4
2017-Dec-09 07:15N 47°31' W 003°50'2 7.7
2017-Dec-09 06:56N 47°32' W 003°47'4 8.5
2017-Dec-09 06:30N 47°35' W 003°43'4 8.5
2017-Dec-09 06:00N 47°37' W 003°38'4 8.5
2017-Dec-09 05:30N 47°39' W 003°32'4 8.1
2017-Dec-09 05:00N 47°41' W 003°27'4 7.4
2017-Dec-09 04:30N 47°43' W 003°22'1 2.1
2017-Dec-09 04:00N 47°44' W 003°22'0 0.0
2017-Dec-09 03:30N 47°44' W 003°22'0 0.0
2017-Dec-09 03:00N 47°44' W 003°22'0 0.0
2017-Dec-09 02:30N 47°44' W 003°22'0 0.0
2017-Dec-09 02:00N 47°44' W 003°22'0 0.0
2017-Dec-09 01:30N 47°44' W 003°22'0 0.0
2017-Dec-09 01:00N 47°44' W 003°22'0 0.0
2017-Dec-09 00:30N 47°44' W 003°22'0 0.0
2017-Dec-09 00:00N 47°44' W 003°22'0 0.0
2017-Dec-08 23:30N 47°44' W 003°22'0 0.0
2017-Dec-08 23:00N 47°44' W 003°22'0 0.0
2017-Dec-08 22:30N 47°44' W 003°22'0 0.0
2017-Dec-08 22:00N 47°44' W 003°22'0 0.0
2017-Dec-08 21:30N 47°44' W 003°22'0 0.0
2017-Dec-08 21:00N 47°44' W 003°22'0 0.0
2017-Dec-08 20:30N 47°44' W 003°22'0 0.0
2017-Dec-08 20:00N 47°44' W 003°22'0 0.0
2017-Dec-08 19:30N 47°44' W 003°22'0 0.0
2017-Dec-08 19:00N 47°44' W 003°22'0 0.0
2017-Dec-08 18:30N 47°44' W 003°22'0 0.0
2017-Dec-08 18:00N 47°44' W 003°22'0 0.0
2017-Dec-08 17:30N 47°44' W 003°22'0 0.0
2017-Dec-08 17:00N 47°44' W 003°22'0 0.0
2017-Dec-08 16:30N 47°44' W 003°22'0 0.0
2017-Dec-08 16:00N 47°44' W 003°22'0 0.0
2017-Dec-08 15:30N 47°44' W 003°22'0 0.0
2017-Dec-08 15:01N 47°44' W 003°22'0 0.0
2017-Dec-08 14:31N 47°44' W 003°22'0 0.0
2017-Dec-08 14:00N 47°44' W 003°22'0 0.0
2017-Dec-08 13:30N 47°44' W 003°22'0 0.0
2017-Dec-08 13:00N 47°44' W 003°22'0 0.0
2017-Dec-08 12:30N 47°44' W 003°22'0 0.0
2017-Dec-08 12:00N 47°44' W 003°22'0 0.0
2017-Dec-08 11:30N 47°44' W 003°22'0 0.0
2017-Dec-08 11:01N 47°44' W 003°22'0 0.0
2017-Dec-08 10:30N 47°44' W 003°22'0 0.0
2017-Dec-08 10:01N 47°44' W 003°22'0 0.0
2017-Dec-08 09:30N 47°44' W 003°22'0 0.0
2017-Dec-08 09:01N 47°44' W 003°22'0 0.0
2017-Dec-08 08:19N 47°44' W 003°22'  
2017-Dec-02 01:07N 47°44' W 003°22'0 0.0
2017-Dec-02 01:00N 47°44' W 003°22'0 0.0
2017-Dec-02 00:31N 47°44' W 003°22'0 0.3
2017-Dec-02 00:00N 47°44' W 003°22'0 0.0
2017-Dec-01 23:31N 47°44' W 003°22'0 0.0
2017-Dec-01 23:00N 47°44' W 003°22'0 0.3
2017-Dec-01 22:30N 47°44' W 003°22'3 5.2
2017-Dec-01 22:00N 47°41' W 003°24'5 9.6
2017-Dec-01 21:31N 47°40' W 003°30'4 8.9
2017-Dec-01 21:01N 47°37' W 003°35'5 9.0
2017-Dec-01 20:30N 47°33' W 003°39'4 8.7
2017-Dec-01 20:00N 47°29' W 003°42'  
Track history (hours):
 
Tides and Currents Weather Stations Pressure Air Temp Water Temp Dewpoint Dewpoint Depression Visibility Wind Speed Wind Dir Waves Ship Positions

F/V Magali

Last reported at 2017-Dec-10 04:48 UTC. Time now 2017-Dec-14 12:56 UTC.
Position N 47°44' W 003°22'.

Length 18 m; draft 3.5 m.

Type: Fishing. MMSI: 228135000.

Date/timePositionNaut miles runAvg speedWind from/ knotsBaromVisibWave heightAir tempDewpointWater temp
2017-Dec-10 04:48N 47°44' W 003°22'0 0.0
2017-Dec-10 04:30N 47°44' W 003°22'0 0.0
2017-Dec-10 04:00N 47°44' W 003°22'1 1.5
2017-Dec-10 03:30N 47°43' W 003°22'4 8.0
2017-Dec-10 03:00N 47°40' W 003°27'4 8.0
2017-Dec-10 02:30N 47°39' W 003°32'3 5.5
2017-Dec-10 02:00N 47°37' W 003°35'3 5.5
2017-Dec-10 01:30N 47°35' W 003°38'3 5.3
2017-Dec-10 01:00N 47°33' W 003°40'3 5.3
2017-Dec-10 00:30N 47°31' W 003°43'3 5.2
2017-Dec-10 00:00N 47°29' W 003°45'3 5.2
2017-Dec-09 23:30N 47°27' W 003°48'1 0.1
2017-Dec-09 10:38N 47°28' W 003°48'1 4.1
2017-Dec-09 10:29N 47°29' W 003°48'2 3.8
2017-Dec-09 09:57N 47°30' W 003°50'3 4.1
2017-Dec-09 09:12N 47°30' W 003°55'1 4.3
2017-Dec-09 08:58N 47°31' W 003°56'4 2.4
2017-Dec-09 07:15N 47°31' W 003°50'2 7.7
2017-Dec-09 06:56N 47°32' W 003°47'4 8.5
2017-Dec-09 06:30N 47°35' W 003°43'4 8.5
2017-Dec-09 06:00N 47°37' W 003°38'4 8.5
2017-Dec-09 05:30N 47°39' W 003°32'4 8.1
2017-Dec-09 05:00N 47°41' W 003°27'4 7.4
2017-Dec-09 04:30N 47°43' W 003°22'1 2.1
2017-Dec-09 04:00N 47°44' W 003°22'0 0.0
2017-Dec-09 03:30N 47°44' W 003°22'0 0.0
2017-Dec-09 03:00N 47°44' W 003°22'0 0.0
2017-Dec-09 02:30N 47°44' W 003°22'0 0.0
2017-Dec-09 02:00N 47°44' W 003°22'0 0.0
2017-Dec-09 01:30N 47°44' W 003°22'0 0.0
2017-Dec-09 01:00N 47°44' W 003°22'0 0.0
2017-Dec-09 00:30N 47°44' W 003°22'0 0.0
2017-Dec-09 00:00N 47°44' W 003°22'0 0.0
2017-Dec-08 23:30N 47°44' W 003°22'0 0.0
2017-Dec-08 23:00N 47°44' W 003°22'0 0.0
2017-Dec-08 22:30N 47°44' W 003°22'0 0.0
2017-Dec-08 22:00N 47°44' W 003°22'0 0.0
2017-Dec-08 21:30N 47°44' W 003°22'0 0.0
2017-Dec-08 21:00N 47°44' W 003°22'0 0.0
2017-Dec-08 20:30N 47°44' W 003°22'0 0.0
2017-Dec-08 20:00N 47°44' W 003°22'0 0.0
2017-Dec-08 19:30N 47°44' W 003°22'0 0.0
2017-Dec-08 19:00N 47°44' W 003°22'0 0.0
2017-Dec-08 18:30N 47°44' W 003°22'0 0.0
2017-Dec-08 18:00N 47°44' W 003°22'0 0.0
2017-Dec-08 17:30N 47°44' W 003°22'0 0.0
2017-Dec-08 17:00N 47°44' W 003°22'0 0.0
2017-Dec-08 16:30N 47°44' W 003°22'0 0.0
2017-Dec-08 16:00N 47°44' W 003°22'0 0.0
2017-Dec-08 15:30N 47°44' W 003°22'0 0.0
2017-Dec-08 15:01N 47°44' W 003°22'0 0.0
2017-Dec-08 14:31N 47°44' W 003°22'0 0.0
2017-Dec-08 14:00N 47°44' W 003°22'0 0.0
2017-Dec-08 13:30N 47°44' W 003°22'0 0.0
2017-Dec-08 13:00N 47°44' W 003°22'0 0.0
2017-Dec-08 12:30N 47°44' W 003°22'0 0.0
2017-Dec-08 12:00N 47°44' W 003°22'0 0.0
2017-Dec-08 11:30N 47°44' W 003°22'0 0.0
2017-Dec-08 11:01N 47°44' W 003°22'0 0.0
2017-Dec-08 10:30N 47°44' W 003°22'0 0.0
2017-Dec-08 10:01N 47°44' W 003°22'0 0.0
2017-Dec-08 09:30N 47°44' W 003°22'0 0.0
2017-Dec-08 09:01N 47°44' W 003°22'0 0.0
2017-Dec-08 08:19N 47°44' W 003°22'  
2017-Dec-02 01:07N 47°44' W 003°22'0 0.0
2017-Dec-02 01:00N 47°44' W 003°22'0 0.0
2017-Dec-02 00:31N 47°44' W 003°22'0 0.3
2017-Dec-02 00:00N 47°44' W 003°22'0 0.0
2017-Dec-01 23:31N 47°44' W 003°22'0 0.0
2017-Dec-01 23:00N 47°44' W 003°22'0 0.3
2017-Dec-01 22:30N 47°44' W 003°22'3 5.2
2017-Dec-01 22:00N 47°41' W 003°24'5 9.6
2017-Dec-01 21:31N 47°40' W 003°30'4 8.9
2017-Dec-01 21:01N 47°37' W 003°35'5 9.0
2017-Dec-01 20:30N 47°33' W 003°39'4 8.7
2017-Dec-01 20:00N 47°29' W 003°42'  

Dump ship's entire track history